Ponciano Arriaga International Airport
MMSP : now visible

Airfield :











YOU CAN JOIN US ON...

 
LOGIN :

Register | Disclaimer

   EN    FR    IT 

 









Legend :    VFR   Marginal VFR   IFR   Intensive IFR   Very Intensive IFR
Visi :
Ceiling :
>= 8 km
>= 3000ft
5 to 8 km
1000 to 3000 ft
1500m to 5 km
500 to 1000 ft
800 to 1500m
200 to 500 ft
< 800m
< 200 ft
Symbols :   Thunderstorms  Fog  Heavy snow  Heavy precipitations  Wind > 20 kt






- Airport Elevation : 6035 ft
- IATA code : SLP


MMSP - Ponciano Arriaga International

CURRENT METAR :
  • 302144Z 04009KT 8SM FEW010 OVC015 09/04 A3028 RMK 8/5// LWR VSBY N HZY

EXPIRED METARs :
  • 302049Z 11004KT 8SM FEW010 OVC015 11/04 A3028 RMK SLP189 57013 942 8/5// HZY
  • 301944Z 13007KT 10SM SCT010 OVC015 11/04 A3031 RMK 8/5//

TAF TAF MMSP
Valid from the 30 at 18:00 until the 02 at 00:00 UTC


301705Z 3018/0124 09010KT P6SM OVC015 TX16/3022Z TN04/0112Z
FM302200 12010KT P6SM BKN030
FM010900 00000KT 3SM BR OVC010
TEMPO 0111/0115 1/2SM FG VV003
FM011800 12010KT P6SM SCT030
MMFR FIR / North America



MET'MAP, your aeronautical weather chart ! - Copyright ORBIFLY December 2007 - Disclaimer

ORBIFLY MET'MAP TEAM :

Programming & Development : Alexandra Zaïnal
Concept & original design : Baudouin d'Aumeries
Assistance for programming : Marc-Olivier Méhu
Technical & hardware support : Manuel Goepfert

Contact : metmap@orbifly.com




SOURCES & CREDITS :

   NOAA       Earth
Advisory